sensor_id;sensor_type;location;lat;lon;timestamp;P1;durP1;ratioP1;P2;durP2;ratioP2
80159;SDS011;69486;59.082;37.928;2023-09-07T00:00:13;18.38;;;6.00;;
80159;SDS011;69486;59.082;37.928;2023-09-07T00:02:39;22.98;;;5.82;;
80159;SDS011;69486;59.082;37.928;2023-09-07T00:05:06;19.05;;;7.20;;
80159;SDS011;69486;59.082;37.928;2023-09-07T00:07:33;17.48;;;6.40;;
80159;SDS011;69486;59.082;37.928;2023-09-07T00:09:59;24.65;;;8.55;;
80159;SDS011;69486;59.082;37.928;2023-09-07T00:12:25;25.60;;;9.15;;
80159;SDS011;69486;59.082;37.928;2023-09-07T00:14:54;23.20;;;7.95;;
80159;SDS011;69486;59.082;37.928;2023-09-07T00:17:20;27.30;;;8.80;;
80159;SDS011;69486;59.082;37.928;2023-09-07T00:19:46;25.50;;;7.75;;
80159;SDS011;69486;59.082;37.928;2023-09-07T00:22:14;12.43;;;5.40;;
80159;SDS011;69486;59.082;37.928;2023-09-07T00:24:40;15.68;;;5.20;;
80159;SDS011;69486;59.082;37.928;2023-09-07T00:27:06;11.48;;;4.82;;
80159;SDS011;69486;59.082;37.928;2023-09-07T00:29:34;15.70;;;4.95;;
80159;SDS011;69486;59.082;37.928;2023-09-07T00:32:00;14.85;;;4.15;;
80159;SDS011;69486;59.082;37.928;2023-09-07T00:34:26;12.30;;;4.60;;
80159;SDS011;69486;59.082;37.928;2023-09-07T00:36:52;10.45;;;3.95;;
80159;SDS011;69486;59.082;37.928;2023-09-07T00:39:18;13.40;;;4.20;;
80159;SDS011;69486;59.082;37.928;2023-09-07T00:41:44;14.55;;;4.63;;
80159;SDS011;69486;59.082;37.928;2023-09-07T00:44:10;20.10;;;5.47;;
80159;SDS011;69486;59.082;37.928;2023-09-07T00:46:36;12.95;;;4.43;;
80159;SDS011;69486;59.082;37.928;2023-09-07T00:49:02;11.02;;;4.82;;
80159;SDS011;69486;59.082;37.928;2023-09-07T00:51:30;12.32;;;4.70;;
80159;SDS011;69486;59.082;37.928;2023-09-07T00:53:56;19.98;;;6.00;;
80159;SDS011;69486;59.082;37.928;2023-09-07T00:56:22;17.77;;;6.25;;
80159;SDS011;69486;59.082;37.928;2023-09-07T00:58:49;21.27;;;6.00;;
80159;SDS011;69486;59.082;37.928;2023-09-07T01:01:15;11.10;;;4.40;;
80159;SDS011;69486;59.082;37.928;2023-09-07T01:03:41;12.75;;;4.35;;
80159;SDS011;69486;59.082;37.928;2023-09-07T01:06:15;11.10;;;4.00;;
80159;SDS011;69486;59.082;37.928;2023-09-07T01:08:44;14.35;;;4.95;;
80159;SDS011;69486;59.082;37.928;2023-09-07T01:11:15;14.68;;;5.65;;
80159;SDS011;69486;59.082;37.928;2023-09-07T01:13:41;16.73;;;4.40;;
80159;SDS011;69486;59.082;37.928;2023-09-07T01:16:09;7.65;;;3.47;;
80159;SDS011;69486;59.082;37.928;2023-09-07T01:18:36;14.27;;;3.72;;
80159;SDS011;69486;59.082;37.928;2023-09-07T01:21:04;12.35;;;4.38;;
80159;SDS011;69486;59.082;37.928;2023-09-07T01:23:30;17.45;;;4.00;;
80159;SDS011;69486;59.082;37.928;2023-09-07T01:25:57;14.75;;;5.00;;
80159;SDS011;69486;59.082;37.928;2023-09-07T01:28:22;21.58;;;5.28;;
80159;SDS011;69486;59.082;37.928;2023-09-07T01:30:48;18.05;;;5.38;;
80159;SDS011;69486;59.082;37.928;2023-09-07T01:33:14;13.35;;;4.65;;
80159;SDS011;69486;59.082;37.928;2023-09-07T01:35:39;20.35;;;5.97;;
80159;SDS011;69486;59.082;37.928;2023-09-07T01:38:06;16.85;;;5.70;;
80159;SDS011;69486;59.082;37.928;2023-09-07T01:40:32;22.48;;;7.53;;
80159;SDS011;69486;59.082;37.928;2023-09-07T01:42:57;27.05;;;8.68;;
80159;SDS011;69486;59.082;37.928;2023-09-07T01:45:24;19.92;;;7.22;;
80159;SDS011;69486;59.082;37.928;2023-09-07T01:47:49;23.02;;;7.55;;
80159;SDS011;69486;59.082;37.928;2023-09-07T01:50:15;14.35;;;5.68;;
80159;SDS011;69486;59.082;37.928;2023-09-07T01:52:41;19.77;;;6.30;;
80159;SDS011;69486;59.082;37.928;2023-09-07T01:55:07;18.63;;;6.20;;
80159;SDS011;69486;59.082;37.928;2023-09-07T01:57:33;13.13;;;5.45;;
80159;SDS011;69486;59.082;37.928;2023-09-07T01:59:59;21.77;;;7.72;;
80159;SDS011;69486;59.082;37.928;2023-09-07T02:02:24;21.63;;;6.60;;
80159;SDS011;69486;59.082;37.928;2023-09-07T02:04:50;22.77;;;7.85;;
80159;SDS011;69486;59.082;37.928;2023-09-07T02:07:15;21.83;;;7.38;;
80159;SDS011;69486;59.082;37.928;2023-09-07T02:09:41;23.30;;;7.10;;
80159;SDS011;69486;59.082;37.928;2023-09-07T02:12:07;24.75;;;8.93;;
80159;SDS011;69486;59.082;37.928;2023-09-07T02:14:33;21.25;;;8.65;;
80159;SDS011;69486;59.082;37.928;2023-09-07T02:16:59;27.60;;;9.63;;
80159;SDS011;69486;59.082;37.928;2023-09-07T02:19:25;24.88;;;7.97;;
80159;SDS011;69486;59.082;37.928;2023-09-07T02:21:51;26.40;;;9.20;;
80159;SDS011;69486;59.082;37.928;2023-09-07T02:24:18;28.63;;;8.93;;
80159;SDS011;69486;59.082;37.928;2023-09-07T02:26:43;31.20;;;8.27;;
80159;SDS011;69486;59.082;37.928;2023-09-07T02:29:11;23.50;;;7.63;;
80159;SDS011;69486;59.082;37.928;2023-09-07T02:31:38;33.17;;;8.77;;
80159;SDS011;69486;59.082;37.928;2023-09-07T02:34:04;29.58;;;9.93;;
80159;SDS011;69486;59.082;37.928;2023-09-07T02:36:33;27.17;;;10.23;;
80159;SDS011;69486;59.082;37.928;2023-09-07T02:39:00;25.88;;;8.20;;
80159;SDS011;69486;59.082;37.928;2023-09-07T02:41:27;24.10;;;8.57;;
80159;SDS011;69486;59.082;37.928;2023-09-07T02:43:53;22.83;;;8.15;;
80159;SDS011;69486;59.082;37.928;2023-09-07T02:46:18;23.33;;;8.07;;
80159;SDS011;69486;59.082;37.928;2023-09-07T02:48:44;22.63;;;6.47;;
80159;SDS011;69486;59.082;37.928;2023-09-07T02:51:10;17.10;;;6.38;;
80159;SDS011;69486;59.082;37.928;2023-09-07T02:53:36;14.40;;;6.00;;
80159;SDS011;69486;59.082;37.928;2023-09-07T02:56:02;13.27;;;5.25;;
80159;SDS011;69486;59.082;37.928;2023-09-07T02:58:30;16.30;;;5.82;;
80159;SDS011;69486;59.082;37.928;2023-09-07T03:00:56;16.17;;;5.25;;
80159;SDS011;69486;59.082;37.928;2023-09-07T03:03:21;18.08;;;6.22;;
80159;SDS011;69486;59.082;37.928;2023-09-07T03:05:47;16.70;;;5.72;;
80159;SDS011;69486;59.082;37.928;2023-09-07T03:08:13;24.08;;;8.07;;
80159;SDS011;69486;59.082;37.928;2023-09-07T03:10:42;20.63;;;7.18;;
80159;SDS011;69486;59.082;37.928;2023-09-07T03:13:09;20.95;;;6.38;;
80159;SDS011;69486;59.082;37.928;2023-09-07T03:15:35;21.55;;;6.40;;
80159;SDS011;69486;59.082;37.928;2023-09-07T03:18:02;26.88;;;7.05;;
80159;SDS011;69486;59.082;37.928;2023-09-07T03:20:28;26.45;;;7.07;;
80159;SDS011;69486;59.082;37.928;2023-09-07T03:22:53;20.60;;;6.85;;
80159;SDS011;69486;59.082;37.928;2023-09-07T03:25:19;16.73;;;6.15;;
80159;SDS011;69486;59.082;37.928;2023-09-07T03:27:45;16.80;;;6.13;;
80159;SDS011;69486;59.082;37.928;2023-09-07T03:30:11;19.50;;;6.63;;
80159;SDS011;69486;59.082;37.928;2023-09-07T03:32:36;17.38;;;6.75;;
80159;SDS011;69486;59.082;37.928;2023-09-07T03:35:03;27.10;;;8.55;;
80159;SDS011;69486;59.082;37.928;2023-09-07T03:37:32;25.92;;;6.85;;
80159;SDS011;69486;59.082;37.928;2023-09-07T03:39:58;20.23;;;6.93;;
80159;SDS011;69486;59.082;37.928;2023-09-07T03:42:23;27.08;;;6.75;;
80159;SDS011;69486;59.082;37.928;2023-09-07T03:44:49;16.92;;;5.18;;
80159;SDS011;69486;59.082;37.928;2023-09-07T03:47:15;14.38;;;4.97;;
80159;SDS011;69486;59.082;37.928;2023-09-07T03:49:41;14.15;;;4.40;;
80159;SDS011;69486;59.082;37.928;2023-09-07T03:52:06;14.20;;;5.70;;
80159;SDS011;69486;59.082;37.928;2023-09-07T03:54:32;14.35;;;5.30;;
80159;SDS011;69486;59.082;37.928;2023-09-07T03:56:58;13.32;;;5.03;;
80159;SDS011;69486;59.082;37.928;2023-09-07T03:59:24;12.15;;;4.55;;
80159;SDS011;69486;59.082;37.928;2023-09-07T04:01:49;14.48;;;4.47;;
80159;SDS011;69486;59.082;37.928;2023-09-07T04:04:15;12.90;;;4.43;;
80159;SDS011;69486;59.082;37.928;2023-09-07T04:06:41;9.38;;;4.18;;
80159;SDS011;69486;59.082;37.928;2023-09-07T04:09:07;11.75;;;4.97;;
80159;SDS011;69486;59.082;37.928;2023-09-07T04:11:32;12.40;;;5.68;;
80159;SDS011;69486;59.082;37.928;2023-09-07T04:13:58;13.90;;;5.03;;
80159;SDS011;69486;59.082;37.928;2023-09-07T04:16:24;18.98;;;7.95;;
80159;SDS011;69486;59.082;37.928;2023-09-07T04:18:50;18.42;;;7.63;;
80159;SDS011;69486;59.082;37.928;2023-09-07T04:21:16;15.85;;;7.35;;
80159;SDS011;69486;59.082;37.928;2023-09-07T04:23:43;18.48;;;7.07;;
80159;SDS011;69486;59.082;37.928;2023-09-07T04:26:09;25.20;;;8.45;;
80159;SDS011;69486;59.082;37.928;2023-09-07T04:28:36;22.70;;;8.70;;
80159;SDS011;69486;59.082;37.928;2023-09-07T04:31:02;21.80;;;7.63;;
80159;SDS011;69486;59.082;37.928;2023-09-07T04:33:30;19.60;;;7.45;;
80159;SDS011;69486;59.082;37.928;2023-09-07T04:36:07;15.82;;;6.88;;
80159;SDS011;69486;59.082;37.928;2023-09-07T04:38:32;19.63;;;6.70;;
80159;SDS011;69486;59.082;37.928;2023-09-07T04:41:11;19.58;;;5.68;;
80159;SDS011;69486;59.082;37.928;2023-09-07T04:43:37;20.02;;;6.65;;
80159;SDS011;69486;59.082;37.928;2023-09-07T04:46:06;17.85;;;7.45;;
80159;SDS011;69486;59.082;37.928;2023-09-07T04:48:32;29.20;;;9.65;;
80159;SDS011;69486;59.082;37.928;2023-09-07T04:50:58;23.40;;;7.82;;
80159;SDS011;69486;59.082;37.928;2023-09-07T04:53:24;16.80;;;7.07;;
80159;SDS011;69486;59.082;37.928;2023-09-07T04:55:50;15.10;;;5.60;;
80159;SDS011;69486;59.082;37.928;2023-09-07T04:58:16;15.40;;;6.05;;
80159;SDS011;69486;59.082;37.928;2023-09-07T05:00:42;19.52;;;6.13;;
80159;SDS011;69486;59.082;37.928;2023-09-07T05:03:08;18.15;;;6.13;;
80159;SDS011;69486;59.082;37.928;2023-09-07T05:05:33;20.30;;;6.70;;
80159;SDS011;69486;59.082;37.928;2023-09-07T05:07:59;19.40;;;6.25;;
80159;SDS011;69486;59.082;37.928;2023-09-07T05:10:25;14.07;;;5.40;;
80159;SDS011;69486;59.082;37.928;2023-09-07T05:12:51;17.58;;;5.88;;
80159;SDS011;69486;59.082;37.928;2023-09-07T05:15:17;13.23;;;4.40;;
80159;SDS011;69486;59.082;37.928;2023-09-07T05:17:43;9.60;;;4.07;;
80159;SDS011;69486;59.082;37.928;2023-09-07T05:20:08;10.77;;;3.80;;
80159;SDS011;69486;59.082;37.928;2023-09-07T05:22:35;7.70;;;2.88;;
80159;SDS011;69486;59.082;37.928;2023-09-07T05:25:08;7.53;;;2.85;;
80159;SDS011;69486;59.082;37.928;2023-09-07T05:27:34;9.20;;;2.85;;
80159;SDS011;69486;59.082;37.928;2023-09-07T05:30:00;6.22;;;2.22;;
80159;SDS011;69486;59.082;37.928;2023-09-07T05:32:26;6.90;;;2.15;;
80159;SDS011;69486;59.082;37.928;2023-09-07T05:34:52;7.00;;;2.45;;
80159;SDS011;69486;59.082;37.928;2023-09-07T05:37:18;6.22;;;1.63;;
80159;SDS011;69486;59.082;37.928;2023-09-07T05:39:47;3.65;;;1.70;;
80159;SDS011;69486;59.082;37.928;2023-09-07T05:42:14;5.65;;;2.22;;
80159;SDS011;69486;59.082;37.928;2023-09-07T05:44:40;3.97;;;1.67;;
80159;SDS011;69486;59.082;37.928;2023-09-07T05:47:06;3.25;;;0.98;;
80159;SDS011;69486;59.082;37.928;2023-09-07T05:49:31;3.85;;;1.30;;
80159;SDS011;69486;59.082;37.928;2023-09-07T05:51:57;3.67;;;1.13;;
80159;SDS011;69486;59.082;37.928;2023-09-07T05:54:23;2.95;;;1.30;;
80159;SDS011;69486;59.082;37.928;2023-09-07T05:56:49;2.45;;;1.40;;
80159;SDS011;69486;59.082;37.928;2023-09-07T05:59:15;3.85;;;1.60;;
80159;SDS011;69486;59.082;37.928;2023-09-07T06:01:41;6.60;;;1.15;;
80159;SDS011;69486;59.082;37.928;2023-09-07T06:04:08;2.28;;;1.00;;
80159;SDS011;69486;59.082;37.928;2023-09-07T06:06:34;2.10;;;0.77;;
80159;SDS011;69486;59.082;37.928;2023-09-07T06:09:00;1.27;;;0.65;;
80159;SDS011;69486;59.082;37.928;2023-09-07T06:11:25;0.88;;;0.75;;
80159;SDS011;69486;59.082;37.928;2023-09-07T06:13:51;0.85;;;0.68;;
80159;SDS011;69486;59.082;37.928;2023-09-07T06:16:17;1.20;;;0.75;;
80159;SDS011;69486;59.082;37.928;2023-09-07T06:18:43;3.45;;;1.13;;
80159;SDS011;69486;59.082;37.928;2023-09-07T06:21:09;1.45;;;1.08;;
80159;SDS011;69486;59.082;37.928;2023-09-07T06:23:35;2.55;;;1.33;;
80159;SDS011;69486;59.082;37.928;2023-09-07T06:26:01;16.40;;;3.65;;
80159;SDS011;69486;59.082;37.928;2023-09-07T06:28:27;11.98;;;4.35;;
80159;SDS011;69486;59.082;37.928;2023-09-07T06:30:52;22.05;;;8.05;;
80159;SDS011;69486;59.082;37.928;2023-09-07T06:33:18;16.25;;;6.50;;
80159;SDS011;69486;59.082;37.928;2023-09-07T06:35:44;15.15;;;5.65;;
80159;SDS011;69486;59.082;37.928;2023-09-07T06:38:10;14.75;;;5.95;;
80159;SDS011;69486;59.082;37.928;2023-09-07T06:40:36;17.00;;;5.05;;
80159;SDS011;69486;59.082;37.928;2023-09-07T06:43:09;14.55;;;4.78;;
80159;SDS011;69486;59.082;37.928;2023-09-07T06:46:18;12.38;;;4.50;;
80159;SDS011;69486;59.082;37.928;2023-09-07T06:48:59;12.23;;;3.85;;
80159;SDS011;69486;59.082;37.928;2023-09-07T06:51:46;8.93;;;2.67;;
80159;SDS011;69486;59.082;37.928;2023-09-07T06:54:12;7.03;;;1.95;;
80159;SDS011;69486;59.082;37.928;2023-09-07T06:56:38;4.95;;;1.55;;
80159;SDS011;69486;59.082;37.928;2023-09-07T06:59:04;2.42;;;1.27;;
80159;SDS011;69486;59.082;37.928;2023-09-07T07:01:31;9.98;;;1.90;;
80159;SDS011;69486;59.082;37.928;2023-09-07T07:03:57;2.60;;;1.30;;
80159;SDS011;69486;59.082;37.928;2023-09-07T07:06:23;3.35;;;1.00;;
80159;SDS011;69486;59.082;37.928;2023-09-07T07:08:49;4.32;;;0.93;;
80159;SDS011;69486;59.082;37.928;2023-09-07T07:11:15;6.38;;;2.08;;
80159;SDS011;69486;59.082;37.928;2023-09-07T07:13:41;6.05;;;2.45;;
80159;SDS011;69486;59.082;37.928;2023-09-07T07:16:07;6.40;;;2.28;;
80159;SDS011;69486;59.082;37.928;2023-09-07T07:18:33;3.42;;;1.95;;
80159;SDS011;69486;59.082;37.928;2023-09-07T07:20:58;3.50;;;1.60;;
80159;SDS011;69486;59.082;37.928;2023-09-07T07:23:24;5.38;;;1.15;;
80159;SDS011;69486;59.082;37.928;2023-09-07T07:25:50;2.85;;;1.20;;
80159;SDS011;69486;59.082;37.928;2023-09-07T07:28:17;3.42;;;1.58;;
80159;SDS011;69486;59.082;37.928;2023-09-07T07:30:43;4.55;;;2.03;;
80159;SDS011;69486;59.082;37.928;2023-09-07T07:33:09;3.15;;;1.52;;
80159;SDS011;69486;59.082;37.928;2023-09-07T07:35:37;3.05;;;0.90;;
80159;SDS011;69486;59.082;37.928;2023-09-07T07:38:03;2.05;;;0.68;;
80159;SDS011;69486;59.082;37.928;2023-09-07T07:40:29;1.30;;;0.75;;
80159;SDS011;69486;59.082;37.928;2023-09-07T07:42:55;4.88;;;2.42;;
80159;SDS011;69486;59.082;37.928;2023-09-07T07:45:21;2.03;;;0.80;;
80159;SDS011;69486;59.082;37.928;2023-09-07T07:47:50;2.30;;;1.50;;
80159;SDS011;69486;59.082;37.928;2023-09-07T07:50:16;4.03;;;1.58;;
80159;SDS011;69486;59.082;37.928;2023-09-07T07:52:42;2.95;;;0.93;;
80159;SDS011;69486;59.082;37.928;2023-09-07T07:55:08;5.82;;;1.13;;
80159;SDS011;69486;59.082;37.928;2023-09-07T07:57:34;1.52;;;0.70;;
80159;SDS011;69486;59.082;37.928;2023-09-07T08:00:00;2.35;;;1.10;;
80159;SDS011;69486;59.082;37.928;2023-09-07T08:02:26;2.80;;;0.60;;
80159;SDS011;69486;59.082;37.928;2023-09-07T08:04:51;2.30;;;0.50;;
80159;SDS011;69486;59.082;37.928;2023-09-07T08:07:17;1.38;;;0.60;;
80159;SDS011;69486;59.082;37.928;2023-09-07T08:09:43;4.03;;;1.20;;
80159;SDS011;69486;59.082;37.928;2023-09-07T08:12:08;5.00;;;1.30;;
80159;SDS011;69486;59.082;37.928;2023-09-07T08:14:35;7.90;;;1.65;;
80159;SDS011;69486;59.082;37.928;2023-09-07T08:17:00;4.78;;;1.90;;
80159;SDS011;69486;59.082;37.928;2023-09-07T08:19:26;1.15;;;0.65;;
80159;SDS011;69486;59.082;37.928;2023-09-07T08:21:53;2.05;;;0.70;;
80159;SDS011;69486;59.082;37.928;2023-09-07T08:24:19;1.23;;;0.70;;
80159;SDS011;69486;59.082;37.928;2023-09-07T08:26:44;1.65;;;0.60;;
80159;SDS011;69486;59.082;37.928;2023-09-07T08:29:10;3.17;;;0.60;;
80159;SDS011;69486;59.082;37.928;2023-09-07T08:31:36;3.50;;;1.10;;
80159;SDS011;69486;59.082;37.928;2023-09-07T08:34:07;3.08;;;0.75;;
80159;SDS011;69486;59.082;37.928;2023-09-07T08:36:37;4.20;;;0.80;;
80159;SDS011;69486;59.082;37.928;2023-09-07T08:39:06;4.43;;;1.23;;
80159;SDS011;69486;59.082;37.928;2023-09-07T08:41:38;4.43;;;1.10;;
80159;SDS011;69486;59.082;37.928;2023-09-07T08:44:07;4.10;;;0.95;;
80159;SDS011;69486;59.082;37.928;2023-09-07T08:46:34;1.77;;;0.95;;
80159;SDS011;69486;59.082;37.928;2023-09-07T08:49:00;4.18;;;1.10;;
80159;SDS011;69486;59.082;37.928;2023-09-07T08:51:29;5.40;;;1.67;;
80159;SDS011;69486;59.082;37.928;2023-09-07T08:53:55;4.70;;;1.67;;
80159;SDS011;69486;59.082;37.928;2023-09-07T08:56:22;4.40;;;1.30;;
80159;SDS011;69486;59.082;37.928;2023-09-07T08:58:48;4.97;;;0.75;;
80159;SDS011;69486;59.082;37.928;2023-09-07T09:01:15;4.22;;;1.40;;
80159;SDS011;69486;59.082;37.928;2023-09-07T09:03:41;6.03;;;1.48;;
80159;SDS011;69486;59.082;37.928;2023-09-07T09:06:08;4.55;;;1.58;;
80159;SDS011;69486;59.082;37.928;2023-09-07T09:11:12;5.30;;;1.58;;
80159;SDS011;69486;59.082;37.928;2023-09-07T09:13:39;5.43;;;1.70;;
80159;SDS011;69486;59.082;37.928;2023-09-07T09:16:05;1.95;;;0.90;;
80159;SDS011;69486;59.082;37.928;2023-09-07T09:18:31;3.58;;;0.88;;
80159;SDS011;69486;59.082;37.928;2023-09-07T09:20:57;1.23;;;0.60;;
80159;SDS011;69486;59.082;37.928;2023-09-07T09:23:32;1.90;;;0.63;;
80159;SDS011;69486;59.082;37.928;2023-09-07T09:25:59;0.93;;;0.50;;
80159;SDS011;69486;59.082;37.928;2023-09-07T09:28:25;0.77;;;0.40;;
80159;SDS011;69486;59.082;37.928;2023-09-07T09:30:53;1.80;;;0.60;;
80159;SDS011;69486;59.082;37.928;2023-09-07T09:33:19;1.75;;;0.77;;
80159;SDS011;69486;59.082;37.928;2023-09-07T09:35:46;4.00;;;1.77;;
80159;SDS011;69486;59.082;37.928;2023-09-07T09:38:13;7.40;;;2.15;;
80159;SDS011;69486;59.082;37.928;2023-09-07T09:40:39;8.82;;;2.40;;
80159;SDS011;69486;59.082;37.928;2023-09-07T09:43:20;5.90;;;1.60;;
80159;SDS011;69486;59.082;37.928;2023-09-07T09:45:47;8.52;;;2.00;;
80159;SDS011;69486;59.082;37.928;2023-09-07T09:48:16;5.03;;;1.13;;
80159;SDS011;69486;59.082;37.928;2023-09-07T09:50:43;6.38;;;2.13;;
80159;SDS011;69486;59.082;37.928;2023-09-07T09:53:34;3.80;;;1.50;;
80159;SDS011;69486;59.082;37.928;2023-09-07T09:56:31;5.05;;;1.77;;
80159;SDS011;69486;59.082;37.928;2023-09-07T09:58:57;8.18;;;1.77;;
80159;SDS011;69486;59.082;37.928;2023-09-07T10:01:23;3.65;;;0.93;;
80159;SDS011;69486;59.082;37.928;2023-09-07T10:03:49;4.68;;;1.08;;
80159;SDS011;69486;59.082;37.928;2023-09-07T10:06:20;3.80;;;0.63;;
80159;SDS011;69486;59.082;37.928;2023-09-07T10:11:26;0.32;;;0.30;;
80159;SDS011;69486;59.082;37.928;2023-09-07T10:13:56;4.20;;;0.85;;
80159;SDS011;69486;59.082;37.928;2023-09-07T10:16:22;3.50;;;1.00;;
80159;SDS011;69486;59.082;37.928;2023-09-07T10:18:48;5.03;;;0.63;;
80159;SDS011;69486;59.082;37.928;2023-09-07T10:21:14;2.22;;;0.50;;
80159;SDS011;69486;59.082;37.928;2023-09-07T10:23:43;2.40;;;0.80;;
80159;SDS011;69486;59.082;37.928;2023-09-07T10:26:17;1.40;;;0.70;;
80159;SDS011;69486;59.082;37.928;2023-09-07T10:28:44;0.80;;;0.40;;
80159;SDS011;69486;59.082;37.928;2023-09-07T10:31:19;1.63;;;0.43;;
80159;SDS011;69486;59.082;37.928;2023-09-07T10:33:45;2.70;;;0.40;;
80159;SDS011;69486;59.082;37.928;2023-09-07T10:36:21;1.38;;;0.50;;
80159;SDS011;69486;59.082;37.928;2023-09-07T10:38:48;1.70;;;0.40;;
80159;SDS011;69486;59.082;37.928;2023-09-07T10:41:14;2.72;;;0.28;;
80159;SDS011;69486;59.082;37.928;2023-09-07T10:43:50;1.05;;;0.30;;
80159;SDS011;69486;59.082;37.928;2023-09-07T10:46:23;1.55;;;0.20;;
80159;SDS011;69486;59.082;37.928;2023-09-07T10:48:52;0.70;;;0.10;;
80159;SDS011;69486;59.082;37.928;2023-09-07T10:51:19;0.40;;;0.20;;
80159;SDS011;69486;59.082;37.928;2023-09-07T10:53:45;0.25;;;0.20;;
80159;SDS011;69486;59.082;37.928;2023-09-07T10:56:11;0.20;;;0.10;;
80159;SDS011;69486;59.082;37.928;2023-09-07T10:58:37;2.42;;;0.30;;
80159;SDS011;69486;59.082;37.928;2023-09-07T11:01:08;0.80;;;0.20;;
80159;SDS011;69486;59.082;37.928;2023-09-07T11:03:34;1.90;;;0.20;;
80159;SDS011;69486;59.082;37.928;2023-09-07T11:08:31;1.42;;;0.30;;
80159;SDS011;69486;59.082;37.928;2023-09-07T11:10:57;0.30;;;0.20;;
80159;SDS011;69486;59.082;37.928;2023-09-07T11:13:23;1.35;;;0.25;;
80159;SDS011;69486;59.082;37.928;2023-09-07T11:15:49;1.40;;;0.30;;
80159;SDS011;69486;59.082;37.928;2023-09-07T11:18:19;1.85;;;0.40;;
80159;SDS011;69486;59.082;37.928;2023-09-07T11:20:46;1.00;;;0.30;;
80159;SDS011;69486;59.082;37.928;2023-09-07T11:23:12;1.27;;;0.30;;
80159;SDS011;69486;59.082;37.928;2023-09-07T11:25:38;2.20;;;0.40;;
80159;SDS011;69486;59.082;37.928;2023-09-07T11:28:04;0.63;;;0.30;;
80159;SDS011;69486;59.082;37.928;2023-09-07T11:30:31;0.80;;;0.40;;
80159;SDS011;69486;59.082;37.928;2023-09-07T11:33:00;0.77;;;0.45;;
80159;SDS011;69486;59.082;37.928;2023-09-07T11:35:26;1.10;;;0.40;;
80159;SDS011;69486;59.082;37.928;2023-09-07T11:37:53;1.38;;;0.30;;
80159;SDS011;69486;59.082;37.928;2023-09-07T11:40:19;1.85;;;0.25;;
80159;SDS011;69486;59.082;37.928;2023-09-07T11:42:45;0.20;;;0.20;;
80159;SDS011;69486;59.082;37.928;2023-09-07T11:45:10;1.67;;;0.50;;
80159;SDS011;69486;59.082;37.928;2023-09-07T11:47:38;4.32;;;0.50;;
80159;SDS011;69486;59.082;37.928;2023-09-07T11:50:05;1.88;;;0.47;;
80159;SDS011;69486;59.082;37.928;2023-09-07T11:52:30;2.30;;;0.50;;
80159;SDS011;69486;59.082;37.928;2023-09-07T11:54:56;3.67;;;0.30;;
80159;SDS011;69486;59.082;37.928;2023-09-07T11:57:22;2.03;;;0.22;;
80159;SDS011;69486;59.082;37.928;2023-09-07T11:59:47;3.22;;;0.32;;
80159;SDS011;69486;59.082;37.928;2023-09-07T12:02:13;1.25;;;0.40;;
80159;SDS011;69486;59.082;37.928;2023-09-07T12:04:40;0.68;;;0.50;;
80159;SDS011;69486;59.082;37.928;2023-09-07T12:07:06;2.92;;;0.35;;
80159;SDS011;69486;59.082;37.928;2023-09-07T12:09:32;2.38;;;0.35;;
80159;SDS011;69486;59.082;37.928;2023-09-07T12:11:57;3.10;;;0.40;;
80159;SDS011;69486;59.082;37.928;2023-09-07T12:14:23;0.95;;;0.45;;
80159;SDS011;69486;59.082;37.928;2023-09-07T12:16:49;3.95;;;0.50;;
80159;SDS011;69486;59.082;37.928;2023-09-07T12:19:14;0.88;;;0.60;;
80159;SDS011;69486;59.082;37.928;2023-09-07T12:21:40;2.10;;;0.30;;
80159;SDS011;69486;59.082;37.928;2023-09-07T12:24:08;1.30;;;0.32;;
80159;SDS011;69486;59.082;37.928;2023-09-07T12:26:33;1.45;;;0.55;;
80159;SDS011;69486;59.082;37.928;2023-09-07T12:28:59;1.67;;;0.75;;
80159;SDS011;69486;59.082;37.928;2023-09-07T12:31:25;1.30;;;0.40;;
80159;SDS011;69486;59.082;37.928;2023-09-07T12:33:51;4.95;;;0.50;;
80159;SDS011;69486;59.082;37.928;2023-09-07T12:36:17;9.20;;;0.60;;
80159;SDS011;69486;59.082;37.928;2023-09-07T12:38:43;9.30;;;0.40;;
80159;SDS011;69486;59.082;37.928;2023-09-07T12:41:09;1.60;;;0.60;;
80159;SDS011;69486;59.082;37.928;2023-09-07T12:43:35;1.48;;;0.10;;
80159;SDS011;69486;59.082;37.928;2023-09-07T12:46:01;1.02;;;0.20;;
80159;SDS011;69486;59.082;37.928;2023-09-07T12:48:26;1.02;;;0.30;;
80159;SDS011;69486;59.082;37.928;2023-09-07T12:50:53;0.77;;;0.20;;
80159;SDS011;69486;59.082;37.928;2023-09-07T12:53:19;2.22;;;0.35;;
80159;SDS011;69486;59.082;37.928;2023-09-07T12:55:45;2.65;;;0.43;;
80159;SDS011;69486;59.082;37.928;2023-09-07T12:58:13;3.40;;;0.50;;
80159;SDS011;69486;59.082;37.928;2023-09-07T13:00:38;2.15;;;0.30;;
80159;SDS011;69486;59.082;37.928;2023-09-07T13:03:04;0.60;;;0.30;;
80159;SDS011;69486;59.082;37.928;2023-09-07T13:05:30;2.38;;;0.47;;
80159;SDS011;69486;59.082;37.928;2023-09-07T13:07:55;3.55;;;0.30;;
80159;SDS011;69486;59.082;37.928;2023-09-07T13:10:23;2.83;;;0.40;;
80159;SDS011;69486;59.082;37.928;2023-09-07T13:12:48;0.60;;;0.20;;
80159;SDS011;69486;59.082;37.928;2023-09-07T13:15:14;3.05;;;0.20;;
80159;SDS011;69486;59.082;37.928;2023-09-07T13:17:40;0.32;;;0.20;;
80159;SDS011;69486;59.082;37.928;2023-09-07T13:20:11;0.90;;;0.30;;
80159;SDS011;69486;59.082;37.928;2023-09-07T13:22:38;2.50;;;0.40;;
80159;SDS011;69486;59.082;37.928;2023-09-07T13:25:04;2.05;;;0.50;;
80159;SDS011;69486;59.082;37.928;2023-09-07T13:27:30;5.43;;;0.60;;
80159;SDS011;69486;59.082;37.928;2023-09-07T13:29:56;1.75;;;0.20;;
80159;SDS011;69486;59.082;37.928;2023-09-07T13:32:23;3.15;;;0.35;;
80159;SDS011;69486;59.082;37.928;2023-09-07T13:34:50;0.65;;;0.20;;
80159;SDS011;69486;59.082;37.928;2023-09-07T13:37:16;3.55;;;0.40;;
80159;SDS011;69486;59.082;37.928;2023-09-07T13:39:42;2.90;;;0.20;;
80159;SDS011;69486;59.082;37.928;2023-09-07T13:42:07;3.33;;;0.30;;
80159;SDS011;69486;59.082;37.928;2023-09-07T13:44:33;1.52;;;0.35;;
80159;SDS011;69486;59.082;37.928;2023-09-07T13:47:00;9.10;;;5.55;;
80159;SDS011;69486;59.082;37.928;2023-09-07T13:49:26;14.35;;;8.02;;
80159;SDS011;69486;59.082;37.928;2023-09-07T13:51:52;2.80;;;0.93;;
80159;SDS011;69486;59.082;37.928;2023-09-07T13:54:20;3.40;;;1.10;;
80159;SDS011;69486;59.082;37.928;2023-09-07T13:56:46;3.15;;;1.10;;
80159;SDS011;69486;59.082;37.928;2023-09-07T13:59:12;4.43;;;0.95;;
80159;SDS011;69486;59.082;37.928;2023-09-07T14:01:38;6.60;;;1.35;;
80159;SDS011;69486;59.082;37.928;2023-09-07T14:04:04;2.15;;;0.90;;
80159;SDS011;69486;59.082;37.928;2023-09-07T14:06:31;2.72;;;0.85;;
80159;SDS011;69486;59.082;37.928;2023-09-07T14:08:58;5.50;;;1.30;;
80159;SDS011;69486;59.082;37.928;2023-09-07T14:11:23;3.65;;;1.10;;
80159;SDS011;69486;59.082;37.928;2023-09-07T14:13:50;4.60;;;2.00;;
80159;SDS011;69486;59.082;37.928;2023-09-07T14:16:20;3.92;;;1.70;;
80159;SDS011;69486;59.082;37.928;2023-09-07T14:18:46;9.35;;;2.17;;
80159;SDS011;69486;59.082;37.928;2023-09-07T14:21:16;4.15;;;1.75;;
80159;SDS011;69486;59.082;37.928;2023-09-07T14:23:41;3.83;;;1.77;;
80159;SDS011;69486;59.082;37.928;2023-09-07T14:26:10;4.03;;;1.85;;
80159;SDS011;69486;59.082;37.928;2023-09-07T14:28:36;3.92;;;1.73;;
80159;SDS011;69486;59.082;37.928;2023-09-07T14:31:03;6.25;;;1.38;;
80159;SDS011;69486;59.082;37.928;2023-09-07T14:33:31;7.50;;;2.28;;